El Monte (240, 1138) Station Data

Red Flag Warning: No
Fire Weather Zone: 250
SDGE Region: Eastern
Lat/Lon: 32.867/-116.896

Observations

Time Wind Speed/Gust Temp(F) RH Fuel Moist Fuel Temp(F) Dewpt(F) Tmax(F) Tmin(F) Accum Precip 10-min Precip SL Press(mb)
4/26 2:40am 69 3 G 6 51° 77% - - 45° 55.8° 50° - - -
4/26 2:30am 123 1 G 2 52° 77% - - 45° 55.8° 52° - - -
4/26 2:20am 193 0 G 2 52° 77% - - 45° 55.8° 52° - - -
4/26 2:10am 96 1 G 2 53° 77% - - 46° 55.8° 52.1° - - -
4/26 2:00am 74 1 G 2 53° 76% - - 45° 55.8° 52.1° - - -
4/26 1:50am 299 1 G 2 53° 76% - - 46° 55.8° 52.1° - - -
4/26 1:40am 69 2 G 3 53° 75% - - 45° 55.8° 52.1° - - -
4/26 1:30am 128 1 G 2 53° 75% - - 45° 55.8° 52.4° - - -
4/26 1:20am 84 0 G 2 53° 74% - - 45° 55.8° 52.4° - - -
4/26 1:10am 0 0 G 0 54° 73% - - 45° 55.8° 52.4° - - -
4/26 1:00am 85 1 G 2 54° 73% - - 45° 55.8° 52.4° - - -
4/26 12:50am 94 2 G 4 54° 74% - - 46° 55.8° 52.4° - - -
4/26 12:40am 97 1 G 3 53° 74% - - 45° 55.8° 52.4° - - -
4/26 12:30am 65 2 G 4 53° 73% - - 45° 55.8° 52.6° - - -
4/26 12:20am 85 2 G 4 54° 72% - - 45° 55.8° 53.5° - - -
4/26 12:10am 64 4 G 5 55° 70% - - 45° 55.8° 53.9° - - -
4/26 12:00am 110 2 G 4 56° 70% - - 46° 70.3° 55° - - -
4/25 11:50pm 51 2 G 3 56° 70% - - 46° 70.3° 55° - - -
4/25 11:40pm 145 1 G 3 56° 69% - - 46° 70.3° 55° - - -
4/25 11:30pm 110 1 G 2 56° 68% - - 45° 70.3° 55° - - -
4/25 11:20pm 128 2 G 3 55° 68% - - 45° 70.3° 55° - - -
4/25 11:10pm 54 2 G 5 56° 66% - - 45° 70.3° 55.8° - - -
4/25 11:00pm 75 4 G 6 57° 66% - - 45° 70.3° 56.2° - - -
4/25 10:50pm 78 5 G 7 57° 65% - - 46° 70.3° 56.7° - - -
4/25 10:40pm 89 3 G 6 57° 65% - - 45° 70.3° 56.7° - - -
4/25 10:30pm 77 2 G 4 57° 64% - - 45° 70.3° 56.7° - - -
4/25 10:20pm 85 3 G 6 58° 63% - - 45° 70.3° 57.4° - - -
4/25 10:10pm 77 4 G 7 58° 63% - - 45° 70.3° 57.8° - - -
4/25 10:00pm 78 5 G 6 58° 62% - - 45° 70.3° 57.9° - - -
4/25 9:50pm 76 4 G 6 58° 62% - - 45° 70.3° 57.9° - - -
4/25 9:40pm 71 3 G 5 58° 61% - - 45° 70.3° 57.9° - - -
4/25 9:30pm 92 0 G 1 59° 59% - - 45° 70.3° 59° - - -
4/25 9:20pm 80 2 G 3 60° 59% - - 45° 70.3° 59° - - -
4/25 9:10pm 64 3 G 4 60° 57% - - 45° 70.3° 59° - - -
4/25 9:00pm 95 1 G 2 61° 55% - - 45° 70.3° 59° - - -
4/25 8:50pm 165 1 G 2 61° 55% - - 45° 70.3° 59° - - -
4/25 8:40pm 163 0 G 1 61° 55% - - 45° 70.3° 59° - - -
4/25 8:30pm 296 0 G 1 62° 54% - - 45° 70.3° 59° - - -
4/25 8:20pm 117 0 G 1 62° 53% - - 45° 70.3° 59° - - -
4/25 8:10pm 154 1 G 3 62° 52% - - 44° 70.3° 59° - - -
4/25 8:00pm 237 2 G 3 63° 51% - - 44° 70.3° 59° - - -
4/25 7:50pm 226 2 G 4 63° 51% - - 45° 70.3° 59° - - -
4/25 7:40pm 285 3 G 6 64° 51% - - 45° 70.3° 59° - - -
4/25 7:30pm 275 4 G 7 64° 50% - - 45° 70.3° 59° - - -
4/25 7:20pm 250 4 G 7 64° 49% - - 45° 70.3° 59° - - -
4/25 7:10pm 269 6 G 10 64° 49% - - 45° 70.3° 59° - - -
4/25 7:00pm 250 6 G 9 65° 48% - - 45° 70.3° 59° - - -
4/25 6:50pm 273 6 G 9 65° 48% - - 45° 70.3° 59° - - -
4/25 6:40pm 283 6 G 10 65° 47% - - 45° 70.3° 59° - - -
4/25 6:30pm 268 7 G 11 65° 46% - - 44° 70.3° 59° - - -
4/25 6:20pm 261 7 G 11 66° 46% - - 44° 70.3° 59° - - -
4/25 6:10pm 257 6 G 11 66° 45% - - 44° 70.3° 59° - - -
4/25 6:00pm 265 7 G 12 66° 45% - - 45° 70.3° 59° - - -
4/25 5:50pm 271 7 G 11 67° 46% - - 45° 70.3° 59° - - -
4/25 5:40pm 256 7 G 12 67° 45% - - 45° 70.3° 59° - - -
4/25 5:30pm 272 7 G 13 68° 46% - - 46° 70.3° 59° - - -
4/25 5:20pm 249 8 G 13 67° 47% - - 46° 70.3° 59° - - -
4/25 5:10pm 262 7 G 12 67° 49% - - 47° 70.3° 59° - - -
4/25 5:00pm 271 6 G 12 67° 50% - - 48° 70.3° 59° - - -
4/25 4:50pm 245 7 G 10 68° 48% - - 48° 70.3° 59° - - -
4/25 4:40pm 246 7 G 10 68° 48% - - 48° 70.3° 59° - - -
4/25 4:30pm 250 7 G 12 68° 48% - - 48° 70.3° 59° - - -
4/25 4:20pm 242 7 G 11 68° 50% - - 48° 70.3° 59° - - -
4/25 4:10pm 252 7 G 13 68° 50% - - 48° 70.3° 59° - - -
4/25 4:00pm 273 5 G 9 69° 48% - - 48° 70.3° 59° - - -
4/25 3:50pm 251 7 G 13 69° 47% - - 48° 70.3° 59° - - -
4/25 3:40pm 270 9 G 16 68° 47% - - 48° 70.3° 59° - - -
4/25 3:30pm 254 8 G 13 69° 46% - - 47° 70.3° 59° - - -
4/25 3:20pm 261 8 G 15 69° 45% - - 47° 70.3° 59° - - -
4/25 3:10pm 242 7 G 12 69° 46% - - 47° 70.3° 59° - - -
4/25 3:00pm 255 7 G 14 69° 46% - - 47° 70.3° 59° - - -
4/25 2:50pm 234 7 G 13 68° 47% - - 47° 70.3° 59° - - -
4/25 2:40pm 235 8 G 13 68° 47% - - 48° 70.3° 59° - - -
4/25 2:30pm 251 8 G 16 68° 49% - - 48° 70.3° 59° - - -
4/25 2:20pm 255 8 G 14 68° 50% - - 49° 70.3° 59° - - -
4/25 2:10pm 233 8 G 13 68° 49% - - 48° 70.3° 59° - - -
4/25 2:00pm 251 8 G 15 69° 47% - - 48° 70.3° 59° - - -
4/25 1:50pm 260 10 G 17 69° 45% - - 47° 70.3° 59° - - -
4/25 1:40pm 244 7 G 16 69° 46% - - 48° 70.3° 59° - - -
4/25 1:30pm 241 5 G 10 68° 47% - - 48° 70.3° 59° - - -
4/25 1:20pm 226 7 G 13 68° 47% - - 47° 70.3° 59° - - -
4/25 1:10pm 239 8 G 15 68° 47% - - 48° 70.3° 59° - - -
4/25 1:00pm 248 6 G 12 69° 47% - - 48° 70.3° 59° - - -
4/25 12:50pm 259 7 G 15 69° 47% - - 48° 70.3° 59° - - -
4/25 12:40pm 258 9 G 15 68° 47% - - 47° 70.3° 59° - - -
4/25 12:30pm 267 8 G 14 68° 47% - - 47° 70.3° 59° - - -
4/25 12:20pm 257 7 G 14 69° 46% - - 47° 70.3° 59° - - -
4/25 12:10pm 238 5 G 15 69° 46% - - 47° 70° 59° - - -
4/25 12:00pm 249 6 G 11 69° 47% - - 48° 70° 59° - - -
4/25 11:50am 252 7 G 14 68° 46% - - 47° 69.4° 59° - - -
4/25 11:40am 255 5 G 10 68° 47% - - 47° 69.2° 59° - - -
4/25 11:30am 229 3 G 8 68° 47% - - 47° 69.2° 59° - - -
4/25 11:20am 286 5 G 9 67° 51% - - 48° 67.8° 59° - - -
4/25 11:10am 263 3 G 8 67° 51% - - 48° 67.5° 59° - - -
4/25 11:00am 250 4 G 9 67° 52% - - 49° 67.3° 59° - - -
4/25 10:50am 314 4 G 9 67° 52% - - 48° 67.2° 59° - - -
4/25 10:40am 278 4 G 9 66° 53% - - 49° 66.6° 59° - - -
4/25 10:30am 209 5 G 10 66° 55% - - 49° 66.3° 59° - - -
4/25 10:20am 281 4 G 11 65° 56% - - 49° 65.9° 59° - - -
4/25 10:10am 256 3 G 7 65° 55% - - 49° 65.9° 59° - - -
4/25 10:00am 169 3 G 7 64° 58% - - 49° 65.1° 59° - - -
4/25 9:50am 302 2 G 4 64° 62% - - 50° 64.5° 59° - - -
4/25 9:40am 269 5 G 9 63° 64% - - 50° 63.9° 59° - - -
4/25 9:30am 254 4 G 8 62° 64% - - 50° 63.9° 59° - - -
4/25 9:20am 254 5 G 8 63° 62% - - 49° 63.9° 59° - - -
4/25 9:10am 224 5 G 9 63° 61% - - 50° 63.9° 59° - - -
4/25 9:00am 237 5 G 9 62° 64% - - 50° 63.3° 59° - - -
4/25 8:50am 254 4 G 8 62° 67% - - 50° 62.3° 59° - - -
4/25 8:40am 246 4 G 7 61° 66% - - 50° 61.8° 59° - - -
4/25 8:30am 214 4 G 8 61° 66% - - 50° 61.8° 59° - - -
4/25 8:20am 204 3 G 7 61° 67% - - 50° 61.5° 59° - - -
4/25 8:10am 202 2 G 4 61° 68% - - 51° 61.5° 59° - - -
4/25 8:00am 343 2 G 4 61° 70% - - 51° 61° 59° - - -
4/25 7:50am 300 2 G 5 60° 70% - - 51° 60.6° 59° - - -
4/25 7:40am 253 2 G 3 60° 71% - - 50° 60.4° 59° - - -
4/25 7:30am 211 1 G 5 60° 71% - - 50° 60.2° 59° - - -
4/25 7:20am 233 1 G 3 60° 71% - - 50° 60.1° 59° - - -
4/25 7:10am 250 1 G 4 60° 71% - - 50° 60.1° 59° - - -
4/25 7:00am 213 1 G 3 59° 71% - - 50° 60.1° 59° - - -
4/25 6:50am 221 2 G 4 59° 71% - - 50° 60.1° 59° - - -
4/25 6:40am 192 3 G 5 59° 71% - - 50° 60.1° 59° - - -
4/25 6:30am 201 4 G 6 59° 71% - - 50° 60.1° 59° - - -
4/25 6:20am 208 3 G 6 59° 71% - - 50° 60.1° 59° - - -
4/25 6:10am 221 3 G 7 59° 71% - - 50° 60.1° 59° - - -
4/25 6:00am 218 1 G 3 59° 71% - - 50° 60.1° 59° - - -
4/25 5:50am 228 2 G 4 59° 71% - - 50° 60.1° 59° - - -
4/25 5:40am 251 3 G 5 59° 71% - - 50° 60.1° 59° - - -
4/25 5:30am 248 2 G 5 59° 71% - - 50° 60.1° 59° - - -
4/25 5:20am 220 2 G 4 59° 70% - - 50° 60.1° 59° - - -
4/25 5:10am 228 3 G 5 59° 70% - - 50° 60.1° 59° - - -
4/25 5:00am 197 4 G 8 59° 69% - - 49° 60.1° 59° - - -
4/25 4:50am 206 4 G 8 60° 68% - - 49° 60.1° 59° - - -
4/25 4:40am 166 1 G 4 60° 68% - - 49° 60.1° 59° - - -
4/25 4:30am 199 3 G 8 60° 68% - - 49° 60.1° 59° - - -
4/25 4:20am 210 2 G 5 60° 68% - - 49° 60.1° 59° - - -
4/25 4:10am 214 2 G 3 60° 68% - - 49° 60.1° 59° - - -
4/25 4:00am 213 2 G 5 60° 68% - - 49° 60.1° 59° - - -
4/25 3:50am 222 2 G 8 59° 68% - - 49° 60.1° 59° - - -
4/25 3:40am 157 2 G 8 59° 68% - - 49° 60.1° 59° - - -
4/25 3:30am 207 2 G 6 59° 69% - - 49° 60.1° 59° - - -
4/25 3:20am 213 1 G 3 59° 69% - - 49° 60.1° 59° - - -
4/25 3:10am 182 2 G 3 59° 69% - - 49° 60.1° 59° - - -
4/25 3:00am 188 3 G 7 59° 69% - - 49° 60.1° 59° - - -
4/25 2:50am 180 4 G 8 59° 69% - - 49° 60.1° 59° - - -
4/25 2:40am 214 5 G 10 59° 69% - - 49° 60.1° 59° - - -
4/25 2:30am 205 7 G 11 59° 69% - - 49° 60.1° 59° - - -
4/25 2:20am 203 7 G 12 59° 69% - - 49° 60.1° 59.2° - - -
4/25 2:10am 212 5 G 10 60° 69% - - 49° 60.1° 59.2° - - -
4/25 2:00am 192 6 G 9 60° 69% - - 49° 60.1° 59.2° - - -
4/25 1:50am 206 4 G 9 60° 69% - - 50° 60.1° 59.2° - - -
4/25 1:40am 194 5 G 8 60° 69% - - 50° 60.1° 59.2° - - -
4/25 1:30am 198 5 G 8 60° 68% - - 49° 60.1° 59.2° - - -
4/25 1:20am 194 4 G 9 60° 67% - - 49° 60.1° 59.2° - - -
4/25 1:10am 205 3 G 6 60° 68% - - 49° 59.9° 59.2° - - -
4/25 1:00am 192 3 G 7 60° 68% - - 49° 59.9° 59.2° - - -
4/25 12:50am 170 3 G 7 60° 68% - - 49° 59.9° 59.2° - - -
4/25 12:40am 170 2 G 6 60° 68% - - 49° 59.9° 59.2° - - -
4/25 12:30am 189 4 G 9 60° 68% - - 49° 59.9° 59.2° - - -
4/25 12:20am 197 3 G 8 60° 69% - - 49° 59.8° 59.2° - - -
4/25 12:10am 178 4 G 8 59° 70% - - 50° 59.6° 59.2° - - -
4/25 12:00am 181 6 G 10 60° 70% - - 50° 72.1° 58.2° - - -
4/24 11:50pm 193 6 G 11 60° 70% - - 50° 72.1° 58.2° - - -
4/24 11:40pm 224 5 G 10 60° 70% - - 50° 72.1° 58.2° - - -
4/24 11:30pm 213 4 G 7 60° 69% - - 50° 72.1° 58.2° - - -
4/24 11:20pm 216 4 G 7 60° 69% - - 50° 72.1° 58.2° - - -
4/24 11:10pm 206 2 G 6 60° 69% - - 50° 72.1° 58.2° - - -
4/24 11:00pm 200 3 G 6 60° 69% - - 50° 72.1° 58.2° - - -
4/24 10:50pm 194 3 G 6 60° 69% - - 50° 72.1° 58.2° - - -
4/24 10:40pm 188 2 G 7 60° 69% - - 50° 72.1° 58.2° - - -
4/24 10:30pm 193 4 G 8 60° 69% - - 50° 72.1° 58.2° - - -
4/24 10:20pm 192 5 G 9 60° 68% - - 49° 72.1° 58.2° - - -
4/24 10:10pm 192 6 G 10 60° 67% - - 49° 72.1° 58.2° - - -
4/24 10:00pm 195 4 G 8 60° 68% - - 50° 72.1° 58.2° - - -
4/24 9:50pm 199 5 G 8 60° 68% - - 50° 72.1° 58.2° - - -
4/24 9:40pm 215 3 G 6 60° 68% - - 50° 72.1° 58.2° - - -
4/24 9:30pm 206 5 G 8 60° 68% - - 50° 72.1° 58.2° - - -
4/24 9:20pm 206 4 G 8 60° 68% - - 50° 72.1° 58.2° - - -
4/24 9:10pm 209 4 G 7 61° 68% - - 50° 72.1° 58.2° - - -
4/24 9:00pm 222 4 G 7 61° 68% - - 50° 72.1° 58.2° - - -
4/24 8:50pm 225 5 G 8 61° 67% - - 50° 72.1° 58.2° - - -
4/24 8:40pm 202 6 G 8 61° 67% - - 50° 72.1° 58.2° - - -
4/24 8:30pm 221 5 G 8 62° 66% - - 50° 72.1° 58.2° - - -
4/24 8:20pm 210 6 G 10 62° 66% - - 50° 72.1° 58.2° - - -
4/24 8:10pm 204 6 G 9 62° 66% - - 51° 72.1° 58.2° - - -
4/24 8:00pm 211 6 G 11 63° 65% - - 51° 72.1° 58.2° - - -
4/24 7:50pm 220 4 G 7 63° 65% - - 51° 72.1° 58.2° - - -
4/24 7:40pm 246 5 G 8 63° 65% - - 51° 72.1° 58.2° - - -
4/24 7:30pm 237 5 G 8 63° 65% - - 51° 72.1° 58.2° - - -
4/24 7:20pm 242 6 G 9 63° 65% - - 51° 72.1° 58.2° - - -
4/24 7:10pm 247 6 G 8 64° 64% - - 51° 72.1° 58.2° - - -
4/24 7:00pm 248 5 G 10 64° 63% - - 51° 72.1° 58.2° - - -
4/24 6:50pm 234 5 G 11 65° 63% - - 52° 72.1° 58.2° - - -
4/24 6:40pm 235 6 G 10 65° 62% - - 51° 72.1° 58.2° - - -
4/24 6:30pm 235 6 G 9 65° 61% - - 51° 72.1° 58.2° - - -
4/24 6:20pm 236 7 G 15 66° 59% - - 51° 72.1° 58.2° - - -
4/24 6:10pm 254 6 G 10 66° 59% - - 51° 72.1° 58.2° - - -
4/24 6:00pm 242 6 G 9 66° 58% - - 51° 72.1° 58.2° - - -